sensor_id;sensor_type;location;lat;lon;timestamp;pressure;altitude;pressure_sealevel;temperature;humidity
73422;BME280;61637;47.760;-122.022;2022-08-07T00:00:00;101930.339;;;28.9;unknown
73422;BME280;61637;47.760;-122.022;2022-08-07T00:02:00;101930.339;;;29.1;unknown
73422;BME280;61637;47.760;-122.022;2022-08-07T00:04:00;101930.339;;;29.2;unknown
73422;BME280;61637;47.760;-122.022;2022-08-07T00:06:00;101930.339;;;29.3;unknown
73422;BME280;61637;47.760;-122.022;2022-08-07T00:08:00;101930.339;;;29.3;unknown
73422;BME280;61637;47.760;-122.022;2022-08-07T00:10:00;101930.339;;;29.3;unknown
73422;BME280;61637;47.760;-122.022;2022-08-07T00:12:00;101591.7;;;29.2;unknown
73422;BME280;61637;47.760;-122.022;2022-08-07T00:14:00;101591.7;;;29.1;unknown
73422;BME280;61637;47.760;-122.022;2022-08-07T00:16:00;101930.339;;;29.1;unknown
73422;BME280;61637;47.760;-122.022;2022-08-07T00:18:00;101591.7;;;29.2;unknown
73422;BME280;61637;47.760;-122.022;2022-08-07T00:20:00;101591.7;;;29.2;unknown
73422;BME280;61637;47.760;-122.022;2022-08-07T00:22:00;101591.7;;;29.2;unknown
73422;BME280;61637;47.760;-122.022;2022-08-07T00:24:00;101591.7;;;29.2;unknown
73422;BME280;61637;47.760;-122.022;2022-08-07T00:26:01;101591.7;;;29.2;unknown
73422;BME280;61637;47.760;-122.022;2022-08-07T00:28:00;101591.7;;;29.2;unknown
73422;BME280;61637;47.760;-122.022;2022-08-07T00:30:00;101591.7;;;29.3;unknown
73422;BME280;61637;47.760;-122.022;2022-08-07T00:32:00;101591.7;;;29.3;unknown
73422;BME280;61637;47.760;-122.022;2022-08-07T00:34:00;101591.7;;;29.3;unknown
73422;BME280;61637;47.760;-122.022;2022-08-07T00:36:00;101591.7;;;29.2;unknown
73422;BME280;61637;47.760;-122.022;2022-08-07T00:38:00;101591.7;;;29.2;unknown
73422;BME280;61637;47.760;-122.022;2022-08-07T00:40:00;101591.7;;;29.1;unknown
73422;BME280;61637;47.760;-122.022;2022-08-07T00:42:00;101591.7;;;28.9;unknown
73422;BME280;61637;47.760;-122.022;2022-08-07T00:44:00;101591.7;;;28.8;unknown
73422;BME280;61637;47.760;-122.022;2022-08-07T00:46:00;101591.7;;;28.8;unknown
73422;BME280;61637;47.760;-122.022;2022-08-07T00:48:00;101591.7;;;28.8;unknown
73422;BME280;61637;47.760;-122.022;2022-08-07T00:50:01;101591.7;;;28.7;unknown
73422;BME280;61637;47.760;-122.022;2022-08-07T00:52:00;101591.7;;;28.7;unknown
73422;BME280;61637;47.760;-122.022;2022-08-07T00:54:00;101591.7;;;28.7;unknown
73422;BME280;61637;47.760;-122.022;2022-08-07T00:56:00;101591.7;;;28.7;unknown
73422;BME280;61637;47.760;-122.022;2022-08-07T00:58:01;101591.7;;;28.8;unknown
73422;BME280;61637;47.760;-122.022;2022-08-07T01:00:00;101591.7;;;28.8;unknown
73422;BME280;61637;47.760;-122.022;2022-08-07T01:02:01;101591.7;;;28.8;unknown
73422;BME280;61637;47.760;-122.022;2022-08-07T01:04:03;101591.7;;;28.9;unknown
73422;BME280;61637;47.760;-122.022;2022-08-07T01:06:00;101591.7;;;29.1;unknown
73422;BME280;61637;47.760;-122.022;2022-08-07T01:08:00;101591.7;;;29.2;unknown
73422;BME280;61637;47.760;-122.022;2022-08-07T01:10:00;101591.7;;;29.1;unknown
73422;BME280;61637;47.760;-122.022;2022-08-07T01:12:00;101591.7;;;29.1;unknown
73422;BME280;61637;47.760;-122.022;2022-08-07T01:14:00;101591.7;;;28.9;unknown
73422;BME280;61637;47.760;-122.022;2022-08-07T01:16:00;101591.7;;;28.8;unknown
73422;BME280;61637;47.760;-122.022;2022-08-07T01:18:01;101591.7;;;28.7;unknown
73422;BME280;61637;47.760;-122.022;2022-08-07T01:20:02;101591.7;;;28.5;unknown
73422;BME280;61637;47.760;-122.022;2022-08-07T01:22:00;101591.7;;;28.3;unknown
73422;BME280;61637;47.760;-122.022;2022-08-07T01:24:00;101591.7;;;28.2;unknown
73422;BME280;61637;47.760;-122.022;2022-08-07T01:26:00;101591.7;;;28.1;unknown
73422;BME280;61637;47.760;-122.022;2022-08-07T01:28:00;101591.7;;;28.0;unknown
73422;BME280;61637;47.760;-122.022;2022-08-07T01:30:00;101591.7;;;28.1;unknown
73422;BME280;61637;47.760;-122.022;2022-08-07T01:32:00;101591.7;;;28.0;unknown
73422;BME280;61637;47.760;-122.022;2022-08-07T01:34:00;101591.7;;;27.8;unknown
73422;BME280;61637;47.760;-122.022;2022-08-07T01:36:00;101591.7;;;27.8;unknown
73422;BME280;61637;47.760;-122.022;2022-08-07T01:38:01;101591.7;;;27.8;unknown
73422;BME280;61637;47.760;-122.022;2022-08-07T01:40:00;101591.7;;;27.9;unknown
73422;BME280;61637;47.760;-122.022;2022-08-07T01:42:00;101591.7;;;27.9;unknown
73422;BME280;61637;47.760;-122.022;2022-08-07T01:44:00;101591.7;;;27.9;unknown
73422;BME280;61637;47.760;-122.022;2022-08-07T01:46:00;101591.7;;;27.8;unknown
73422;BME280;61637;47.760;-122.022;2022-08-07T01:48:00;101591.7;;;27.6;unknown
73422;BME280;61637;47.760;-122.022;2022-08-07T01:50:00;101591.7;;;27.4;unknown
73422;BME280;61637;47.760;-122.022;2022-08-07T01:52:00;101591.7;;;27.2;unknown
73422;BME280;61637;47.760;-122.022;2022-08-07T01:54:01;101591.7;;;27.0;unknown
73422;BME280;61637;47.760;-122.022;2022-08-07T01:56:01;101591.7;;;26.8;unknown
73422;BME280;61637;47.760;-122.022;2022-08-07T01:58:01;101591.7;;;26.6;unknown
73422;BME280;61637;47.760;-122.022;2022-08-07T02:00:01;101591.7;;;26.4;unknown
73422;BME280;61637;47.760;-122.022;2022-08-07T02:02:04;101591.7;;;26.2;unknown
73422;BME280;61637;47.760;-122.022;2022-08-07T02:04:02;101591.7;;;26.1;unknown
73422;BME280;61637;47.760;-122.022;2022-08-07T02:06:02;101591.7;;;25.9;unknown
73422;BME280;61637;47.760;-122.022;2022-08-07T02:08:02;101591.7;;;25.9;unknown
73422;BME280;61637;47.760;-122.022;2022-08-07T02:10:00;101591.7;;;26.0;unknown
73422;BME280;61637;47.760;-122.022;2022-08-07T02:12:00;101591.7;;;26.0;unknown
73422;BME280;61637;47.760;-122.022;2022-08-07T02:14:01;101591.7;;;26.0;unknown
73422;BME280;61637;47.760;-122.022;2022-08-07T02:16:01;101591.7;;;25.9;unknown
73422;BME280;61637;47.760;-122.022;2022-08-07T02:18:01;101591.7;;;25.9;unknown
73422;BME280;61637;47.760;-122.022;2022-08-07T02:20:02;101591.7;;;25.8;unknown
73422;BME280;61637;47.760;-122.022;2022-08-07T02:22:00;101591.7;;;25.7;unknown
73422;BME280;61637;47.760;-122.022;2022-08-07T02:24:00;101591.7;;;25.6;unknown
73422;BME280;61637;47.760;-122.022;2022-08-07T02:26:00;101591.7;;;25.5;unknown
73422;BME280;61637;47.760;-122.022;2022-08-07T02:28:00;101591.7;;;25.3;unknown
73422;BME280;61637;47.760;-122.022;2022-08-07T02:30:00;101591.7;;;25.2;unknown
73422;BME280;61637;47.760;-122.022;2022-08-07T02:32:00;101591.7;;;25.0;unknown
73422;BME280;61637;47.760;-122.022;2022-08-07T02:34:01;101591.7;;;24.9;unknown
73422;BME280;61637;47.760;-122.022;2022-08-07T02:36:00;101591.7;;;24.7;unknown
73422;BME280;61637;47.760;-122.022;2022-08-07T02:38:01;101591.7;;;24.6;unknown
73422;BME280;61637;47.760;-122.022;2022-08-07T02:40:01;101591.7;;;24.4;unknown
73422;BME280;61637;47.760;-122.022;2022-08-07T02:42:00;101591.7;;;24.3;unknown
73422;BME280;61637;47.760;-122.022;2022-08-07T02:44:00;101591.7;;;24.2;unknown
73422;BME280;61637;47.760;-122.022;2022-08-07T02:46:00;101591.7;;;24.1;unknown
73422;BME280;61637;47.760;-122.022;2022-08-07T02:48:00;101591.7;;;23.9;unknown
73422;BME280;61637;47.760;-122.022;2022-08-07T02:50:00;101591.7;;;23.9;unknown
73422;BME280;61637;47.760;-122.022;2022-08-07T02:52:00;101591.7;;;23.8;unknown
73422;BME280;61637;47.760;-122.022;2022-08-07T02:54:01;101591.7;;;23.6;unknown
73422;BME280;61637;47.760;-122.022;2022-08-07T02:56:00;101591.7;;;23.6;unknown
73422;BME280;61637;47.760;-122.022;2022-08-07T02:58:02;101591.7;;;23.5;unknown
73422;BME280;61637;47.760;-122.022;2022-08-07T03:00:00;101591.7;;;23.4;unknown
73422;BME280;61637;47.760;-122.022;2022-08-07T03:02:00;101591.7;;;23.3;unknown
73422;BME280;61637;47.760;-122.022;2022-08-07T03:04:00;101591.7;;;23.3;unknown
73422;BME280;61637;47.760;-122.022;2022-08-07T03:06:01;101591.7;;;23.3;unknown
73422;BME280;61637;47.760;-122.022;2022-08-07T03:08:00;101591.7;;;23.3;unknown
73422;BME280;61637;47.760;-122.022;2022-08-07T03:10:00;101591.7;;;23.4;unknown
73422;BME280;61637;47.760;-122.022;2022-08-07T03:12:00;101591.7;;;23.7;unknown
73422;BME280;61637;47.760;-122.022;2022-08-07T03:14:01;101591.7;;;23.8;unknown
73422;BME280;61637;47.760;-122.022;2022-08-07T03:16:00;101591.7;;;23.9;unknown
73422;BME280;61637;47.760;-122.022;2022-08-07T03:18:00;101591.7;;;24.1;unknown
73422;BME280;61637;47.760;-122.022;2022-08-07T03:20:00;101591.7;;;24.1;unknown
73422;BME280;61637;47.760;-122.022;2022-08-07T03:22:00;101591.7;;;24.1;unknown
73422;BME280;61637;47.760;-122.022;2022-08-07T03:24:00;101591.7;;;23.9;unknown
73422;BME280;61637;47.760;-122.022;2022-08-07T03:26:01;101591.7;;;23.7;unknown
73422;BME280;61637;47.760;-122.022;2022-08-07T03:28:00;101591.7;;;23.5;unknown
73422;BME280;61637;47.760;-122.022;2022-08-07T03:30:01;101591.7;;;23.3;unknown
73422;BME280;61637;47.760;-122.022;2022-08-07T03:32:00;101591.7;;;23.1;unknown
73422;BME280;61637;47.760;-122.022;2022-08-07T03:34:01;101591.7;;;22.8;unknown
73422;BME280;61637;47.760;-122.022;2022-08-07T03:36:00;101591.7;;;22.6;unknown
73422;BME280;61637;47.760;-122.022;2022-08-07T03:38:01;101591.7;;;22.4;unknown
73422;BME280;61637;47.760;-122.022;2022-08-07T03:40:00;101591.7;;;22.3;unknown
73422;BME280;61637;47.760;-122.022;2022-08-07T03:42:01;101591.7;;;22.1;unknown
73422;BME280;61637;47.760;-122.022;2022-08-07T03:44:00;101591.7;;;21.9;unknown
73422;BME280;61637;47.760;-122.022;2022-08-07T03:46:00;101591.7;;;21.8;unknown
73422;BME280;61637;47.760;-122.022;2022-08-07T03:48:00;101591.7;;;21.7;unknown
73422;BME280;61637;47.760;-122.022;2022-08-07T03:50:01;101591.7;;;21.6;unknown
73422;BME280;61637;47.760;-122.022;2022-08-07T03:52:00;101930.339;;;21.5;unknown
73422;BME280;61637;47.760;-122.022;2022-08-07T03:54:00;101930.339;;;21.4;unknown
73422;BME280;61637;47.760;-122.022;2022-08-07T03:56:00;101591.7;;;21.3;unknown
73422;BME280;61637;47.760;-122.022;2022-08-07T03:58:00;101930.339;;;21.2;unknown
73422;BME280;61637;47.760;-122.022;2022-08-07T04:00:00;101930.339;;;21.1;unknown
73422;BME280;61637;47.760;-122.022;2022-08-07T04:02:00;101930.339;;;21.0;unknown
73422;BME280;61637;47.760;-122.022;2022-08-07T04:04:00;101930.339;;;20.9;unknown
73422;BME280;61637;47.760;-122.022;2022-08-07T04:06:01;101930.339;;;20.8;unknown
73422;BME280;61637;47.760;-122.022;2022-08-07T04:08:00;101930.339;;;20.7;unknown
73422;BME280;61637;47.760;-122.022;2022-08-07T04:10:00;101930.339;;;20.7;unknown
73422;BME280;61637;47.760;-122.022;2022-08-07T04:12:00;101930.339;;;20.6;unknown
73422;BME280;61637;47.760;-122.022;2022-08-07T04:14:01;101930.339;;;20.4;unknown
73422;BME280;61637;47.760;-122.022;2022-08-07T04:16:00;101930.339;;;20.4;unknown
73422;BME280;61637;47.760;-122.022;2022-08-07T04:18:00;101930.339;;;20.3;unknown
73422;BME280;61637;47.760;-122.022;2022-08-07T04:20:00;101930.339;;;20.2;unknown
73422;BME280;61637;47.760;-122.022;2022-08-07T04:22:00;101930.339;;;20.2;unknown
73422;BME280;61637;47.760;-122.022;2022-08-07T04:24:00;101930.339;;;20.1;unknown
73422;BME280;61637;47.760;-122.022;2022-08-07T04:26:00;101930.339;;;20.1;unknown
73422;BME280;61637;47.760;-122.022;2022-08-07T04:28:00;101930.339;;;20.0;unknown
73422;BME280;61637;47.760;-122.022;2022-08-07T04:30:00;101930.339;;;19.9;unknown
73422;BME280;61637;47.760;-122.022;2022-08-07T04:32:00;101930.339;;;19.9;unknown
73422;BME280;61637;47.760;-122.022;2022-08-07T04:34:00;101930.339;;;19.8;unknown
73422;BME280;61637;47.760;-122.022;2022-08-07T04:36:00;101930.339;;;19.8;unknown
73422;BME280;61637;47.760;-122.022;2022-08-07T04:38:04;101930.339;;;19.7;unknown
73422;BME280;61637;47.760;-122.022;2022-08-07T04:40:00;101930.339;;;19.7;unknown
73422;BME280;61637;47.760;-122.022;2022-08-07T04:42:01;101930.339;;;19.6;unknown
73422;BME280;61637;47.760;-122.022;2022-08-07T04:44:00;101930.339;;;19.5;unknown
73422;BME280;61637;47.760;-122.022;2022-08-07T04:46:02;101930.339;;;19.4;unknown
73422;BME280;61637;47.760;-122.022;2022-08-07T04:48:02;101930.339;;;19.4;unknown
73422;BME280;61637;47.760;-122.022;2022-08-07T04:50:02;101930.339;;;19.3;unknown
73422;BME280;61637;47.760;-122.022;2022-08-07T04:52:02;101930.339;;;19.3;unknown
73422;BME280;61637;47.760;-122.022;2022-08-07T04:54:02;101930.339;;;19.2;unknown
73422;BME280;61637;47.760;-122.022;2022-08-07T04:56:04;101930.339;;;19.2;unknown
73422;BME280;61637;47.760;-122.022;2022-08-07T04:58:04;101930.339;;;19.2;unknown
73422;BME280;61637;47.760;-122.022;2022-08-07T05:00:02;101930.339;;;19.1;unknown
73422;BME280;61637;47.760;-122.022;2022-08-07T05:02:03;101930.339;;;19.1;unknown
73422;BME280;61637;47.760;-122.022;2022-08-07T05:04:03;101930.339;;;19.1;unknown
73422;BME280;61637;47.760;-122.022;2022-08-07T05:06:01;101930.339;;;18.9;unknown
73422;BME280;61637;47.760;-122.022;2022-08-07T05:08:02;101930.339;;;18.9;unknown
73422;BME280;61637;47.760;-122.022;2022-08-07T05:10:03;101930.339;;;18.9;unknown
73422;BME280;61637;47.760;-122.022;2022-08-07T05:12:01;101930.339;;;18.9;unknown
73422;BME280;61637;47.760;-122.022;2022-08-07T05:14:03;101930.339;;;18.8;unknown
73422;BME280;61637;47.760;-122.022;2022-08-07T05:16:00;101930.339;;;18.8;unknown
73422;BME280;61637;47.760;-122.022;2022-08-07T05:18:02;101930.339;;;18.8;unknown
73422;BME280;61637;47.760;-122.022;2022-08-07T05:20:00;101930.339;;;18.8;unknown
73422;BME280;61637;47.760;-122.022;2022-08-07T05:22:00;101930.339;;;18.8;unknown
73422;BME280;61637;47.760;-122.022;2022-08-07T05:24:01;101930.339;;;18.7;unknown
73422;BME280;61637;47.760;-122.022;2022-08-07T05:26:01;101930.339;;;18.7;unknown
73422;BME280;61637;47.760;-122.022;2022-08-07T05:28:00;101930.339;;;18.7;unknown
73422;BME280;61637;47.760;-122.022;2022-08-07T05:30:00;101930.339;;;18.7;unknown
73422;BME280;61637;47.760;-122.022;2022-08-07T05:32:00;101930.339;;;18.7;unknown
73422;BME280;61637;47.760;-122.022;2022-08-07T05:34:00;101930.339;;;18.7;unknown
73422;BME280;61637;47.760;-122.022;2022-08-07T05:36:00;101930.339;;;18.7;unknown
73422;BME280;61637;47.760;-122.022;2022-08-07T05:38:01;101930.339;;;18.7;unknown
73422;BME280;61637;47.760;-122.022;2022-08-07T05:40:00;101930.339;;;18.6;unknown
73422;BME280;61637;47.760;-122.022;2022-08-07T05:42:00;101930.339;;;18.7;unknown
73422;BME280;61637;47.760;-122.022;2022-08-07T05:44:00;101930.339;;;18.6;unknown
73422;BME280;61637;47.760;-122.022;2022-08-07T05:46:00;101930.339;;;18.6;unknown
73422;BME280;61637;47.760;-122.022;2022-08-07T05:48:01;101930.339;;;18.6;unknown
73422;BME280;61637;47.760;-122.022;2022-08-07T05:50:00;101930.339;;;18.6;unknown
73422;BME280;61637;47.760;-122.022;2022-08-07T05:52:00;101930.339;;;18.6;unknown
73422;BME280;61637;47.760;-122.022;2022-08-07T05:54:00;101930.339;;;18.6;unknown
73422;BME280;61637;47.760;-122.022;2022-08-07T05:56:00;101930.339;;;18.6;unknown
73422;BME280;61637;47.760;-122.022;2022-08-07T05:58:00;101930.339;;;18.6;unknown
73422;BME280;61637;47.760;-122.022;2022-08-07T06:00:00;101930.339;;;18.6;unknown
73422;BME280;61637;47.760;-122.022;2022-08-07T06:02:00;101930.339;;;18.6;unknown
73422;BME280;61637;47.760;-122.022;2022-08-07T06:04:00;101930.339;;;18.6;unknown
73422;BME280;61637;47.760;-122.022;2022-08-07T06:06:00;101930.339;;;18.7;unknown
73422;BME280;61637;47.760;-122.022;2022-08-07T06:08:00;101930.339;;;18.8;unknown
73422;BME280;61637;47.760;-122.022;2022-08-07T06:10:00;101930.339;;;18.9;unknown
73422;BME280;61637;47.760;-122.022;2022-08-07T06:12:00;101930.339;;;19.1;unknown
73422;BME280;61637;47.760;-122.022;2022-08-07T06:14:00;101930.339;;;19.2;unknown
73422;BME280;61637;47.760;-122.022;2022-08-07T06:16:00;101930.339;;;19.4;unknown
73422;BME280;61637;47.760;-122.022;2022-08-07T06:18:01;101930.339;;;19.4;unknown
73422;BME280;61637;47.760;-122.022;2022-08-07T06:20:00;101930.339;;;19.6;unknown
73422;BME280;61637;47.760;-122.022;2022-08-07T06:22:00;101930.339;;;19.7;unknown
73422;BME280;61637;47.760;-122.022;2022-08-07T06:24:00;101930.339;;;19.8;unknown
73422;BME280;61637;47.760;-122.022;2022-08-07T06:26:01;101930.339;;;19.8;unknown
73422;BME280;61637;47.760;-122.022;2022-08-07T06:28:01;101930.339;;;19.8;unknown
73422;BME280;61637;47.760;-122.022;2022-08-07T06:30:00;101930.339;;;19.9;unknown
73422;BME280;61637;47.760;-122.022;2022-08-07T06:32:00;101930.339;;;20.1;unknown
73422;BME280;61637;47.760;-122.022;2022-08-07T06:34:00;101930.339;;;20.2;unknown
73422;BME280;61637;47.760;-122.022;2022-08-07T06:36:00;101930.339;;;20.3;unknown
73422;BME280;61637;47.760;-122.022;2022-08-07T06:38:00;101930.339;;;20.3;unknown
73422;BME280;61637;47.760;-122.022;2022-08-07T06:40:00;101930.339;;;20.3;unknown
73422;BME280;61637;47.760;-122.022;2022-08-07T06:42:01;101930.339;;;20.3;unknown
73422;BME280;61637;47.760;-122.022;2022-08-07T06:44:00;101930.339;;;20.2;unknown
73422;BME280;61637;47.760;-122.022;2022-08-07T06:46:00;101930.339;;;20.1;unknown
73422;BME280;61637;47.760;-122.022;2022-08-07T06:48:00;101930.339;;;19.9;unknown
73422;BME280;61637;47.760;-122.022;2022-08-07T06:50:00;101930.339;;;19.8;unknown
73422;BME280;61637;47.760;-122.022;2022-08-07T06:52:00;101930.339;;;19.7;unknown
73422;BME280;61637;47.760;-122.022;2022-08-07T06:54:02;101930.339;;;19.6;unknown
73422;BME280;61637;47.760;-122.022;2022-08-07T06:56:00;101930.339;;;19.4;unknown
73422;BME280;61637;47.760;-122.022;2022-08-07T06:58:01;101930.339;;;19.3;unknown
73422;BME280;61637;47.760;-122.022;2022-08-07T07:00:00;101930.339;;;19.2;unknown
73422;BME280;61637;47.760;-122.022;2022-08-07T07:02:00;101930.339;;;19.2;unknown
73422;BME280;61637;47.760;-122.022;2022-08-07T07:04:01;101930.339;;;19.0;unknown
73422;BME280;61637;47.760;-122.022;2022-08-07T07:06:00;101930.339;;;18.9;unknown
73422;BME280;61637;47.760;-122.022;2022-08-07T07:08:00;101930.339;;;18.8;unknown
73422;BME280;61637;47.760;-122.022;2022-08-07T07:10:00;101930.339;;;18.8;unknown
73422;BME280;61637;47.760;-122.022;2022-08-07T07:12:03;101930.339;;;18.7;unknown
73422;BME280;61637;47.760;-122.022;2022-08-07T07:14:00;101930.339;;;18.6;unknown
73422;BME280;61637;47.760;-122.022;2022-08-07T07:16:01;101930.339;;;18.6;unknown
73422;BME280;61637;47.760;-122.022;2022-08-07T07:18:03;101930.339;;;18.6;unknown
73422;BME280;61637;47.760;-122.022;2022-08-07T07:20:02;101930.339;;;18.5;unknown
73422;BME280;61637;47.760;-122.022;2022-08-07T07:22:00;101930.339;;;18.4;unknown
73422;BME280;61637;47.760;-122.022;2022-08-07T07:24:00;101930.339;;;18.3;unknown
73422;BME280;61637;47.760;-122.022;2022-08-07T07:26:02;101930.339;;;18.3;unknown
73422;BME280;61637;47.760;-122.022;2022-08-07T07:28:01;101930.339;;;18.2;unknown
73422;BME280;61637;47.760;-122.022;2022-08-07T07:30:01;101930.339;;;18.2;unknown
73422;BME280;61637;47.760;-122.022;2022-08-07T07:32:00;101930.339;;;18.1;unknown
73422;BME280;61637;47.760;-122.022;2022-08-07T07:34:02;101930.339;;;18.1;unknown
73422;BME280;61637;47.760;-122.022;2022-08-07T07:36:00;101930.339;;;18.0;unknown
73422;BME280;61637;47.760;-122.022;2022-08-07T07:38:00;101930.339;;;17.9;unknown
73422;BME280;61637;47.760;-122.022;2022-08-07T07:40:02;101930.339;;;17.8;unknown
73422;BME280;61637;47.760;-122.022;2022-08-07T07:42:00;101930.339;;;17.8;unknown
73422;BME280;61637;47.760;-122.022;2022-08-07T07:44:00;101930.339;;;17.8;unknown
73422;BME280;61637;47.760;-122.022;2022-08-07T07:46:00;101930.339;;;17.7;unknown
73422;BME280;61637;47.760;-122.022;2022-08-07T07:48:00;101930.339;;;17.6;unknown
73422;BME280;61637;47.760;-122.022;2022-08-07T07:50:00;101930.339;;;17.5;unknown
73422;BME280;61637;47.760;-122.022;2022-08-07T07:52:00;101930.339;;;17.5;unknown
73422;BME280;61637;47.760;-122.022;2022-08-07T07:54:00;101930.339;;;17.4;unknown
73422;BME280;61637;47.760;-122.022;2022-08-07T07:56:00;101930.339;;;17.3;unknown
73422;BME280;61637;47.760;-122.022;2022-08-07T07:58:00;101930.339;;;17.3;unknown
73422;BME280;61637;47.760;-122.022;2022-08-07T08:00:00;101930.339;;;17.2;unknown
73422;BME280;61637;47.760;-122.022;2022-08-07T08:02:01;101930.339;;;17.2;unknown
73422;BME280;61637;47.760;-122.022;2022-08-07T08:04:02;101930.339;;;17.2;unknown
73422;BME280;61637;47.760;-122.022;2022-08-07T08:06:00;101930.339;;;17.1;unknown
73422;BME280;61637;47.760;-122.022;2022-08-07T08:08:00;101930.339;;;17.1;unknown
73422;BME280;61637;47.760;-122.022;2022-08-07T08:10:00;101930.339;;;17.1;unknown
73422;BME280;61637;47.760;-122.022;2022-08-07T08:12:00;101930.339;;;17.0;unknown
73422;BME280;61637;47.760;-122.022;2022-08-07T08:14:00;101930.339;;;17.0;unknown
73422;BME280;61637;47.760;-122.022;2022-08-07T08:16:00;101930.339;;;17.0;unknown
73422;BME280;61637;47.760;-122.022;2022-08-07T08:18:00;101930.339;;;16.9;unknown
73422;BME280;61637;47.760;-122.022;2022-08-07T08:20:01;101930.339;;;16.9;unknown
73422;BME280;61637;47.760;-122.022;2022-08-07T08:22:00;101930.339;;;16.9;unknown
73422;BME280;61637;47.760;-122.022;2022-08-07T08:24:00;101930.339;;;16.9;unknown
73422;BME280;61637;47.760;-122.022;2022-08-07T08:26:01;101930.339;;;16.9;unknown
73422;BME280;61637;47.760;-122.022;2022-08-07T08:28:00;101930.339;;;16.9;unknown
73422;BME280;61637;47.760;-122.022;2022-08-07T08:30:03;101930.339;;;16.9;unknown
73422;BME280;61637;47.760;-122.022;2022-08-07T08:32:00;101930.339;;;16.9;unknown
73422;BME280;61637;47.760;-122.022;2022-08-07T08:34:01;101930.339;;;16.9;unknown
73422;BME280;61637;47.760;-122.022;2022-08-07T08:36:00;101930.339;;;16.9;unknown
73422;BME280;61637;47.760;-122.022;2022-08-07T08:38:01;101930.339;;;16.8;unknown
73422;BME280;61637;47.760;-122.022;2022-08-07T08:40:00;101930.339;;;16.8;unknown
73422;BME280;61637;47.760;-122.022;2022-08-07T08:42:02;101930.339;;;16.8;unknown
73422;BME280;61637;47.760;-122.022;2022-08-07T08:44:01;101930.339;;;16.8;unknown
73422;BME280;61637;47.760;-122.022;2022-08-07T08:46:04;101930.339;;;16.8;unknown
73422;BME280;61637;47.760;-122.022;2022-08-07T08:48:03;101930.339;;;16.8;unknown
73422;BME280;61637;47.760;-122.022;2022-08-07T08:50:02;101930.339;;;16.8;unknown
73422;BME280;61637;47.760;-122.022;2022-08-07T08:52:02;101930.339;;;16.8;unknown
73422;BME280;61637;47.760;-122.022;2022-08-07T08:54:01;101930.339;;;16.8;unknown
73422;BME280;61637;47.760;-122.022;2022-08-07T08:56:02;101930.339;;;16.8;unknown
73422;BME280;61637;47.760;-122.022;2022-08-07T08:58:02;101930.339;;;16.8;unknown
73422;BME280;61637;47.760;-122.022;2022-08-07T09:00:02;101930.339;;;16.7;unknown
73422;BME280;61637;47.760;-122.022;2022-08-07T09:02:04;101930.339;;;16.7;unknown
73422;BME280;61637;47.760;-122.022;2022-08-07T09:04:05;101930.339;;;16.7;unknown
73422;BME280;61637;47.760;-122.022;2022-08-07T09:06:03;101930.339;;;16.7;unknown
73422;BME280;61637;47.760;-122.022;2022-08-07T09:08:03;101930.339;;;16.6;unknown
73422;BME280;61637;47.760;-122.022;2022-08-07T09:10:03;101930.339;;;16.6;unknown
73422;BME280;61637;47.760;-122.022;2022-08-07T09:12:03;101930.339;;;16.5;unknown
73422;BME280;61637;47.760;-122.022;2022-08-07T09:14:03;101930.339;;;16.5;unknown
73422;BME280;61637;47.760;-122.022;2022-08-07T09:16:03;101930.339;;;16.5;unknown
73422;BME280;61637;47.760;-122.022;2022-08-07T09:18:04;101930.339;;;16.4;unknown
73422;BME280;61637;47.760;-122.022;2022-08-07T09:20:03;101930.339;;;16.4;unknown
73422;BME280;61637;47.760;-122.022;2022-08-07T09:22:05;101930.339;;;16.4;unknown
73422;BME280;61637;47.760;-122.022;2022-08-07T09:24:02;101930.339;;;16.3;unknown
73422;BME280;61637;47.760;-122.022;2022-08-07T09:26:06;101930.339;;;16.3;unknown
73422;BME280;61637;47.760;-122.022;2022-08-07T09:28:02;101930.339;;;16.3;unknown
73422;BME280;61637;47.760;-122.022;2022-08-07T09:30:03;101930.339;;;16.3;unknown
73422;BME280;61637;47.760;-122.022;2022-08-07T09:32:03;101930.339;;;16.3;unknown
73422;BME280;61637;47.760;-122.022;2022-08-07T09:34:05;101930.339;;;16.2;unknown
73422;BME280;61637;47.760;-122.022;2022-08-07T09:36:02;101930.339;;;16.2;unknown
73422;BME280;61637;47.760;-122.022;2022-08-07T09:38:02;101930.339;;;16.2;unknown
73422;BME280;61637;47.760;-122.022;2022-08-07T09:40:02;101930.339;;;16.2;unknown
73422;BME280;61637;47.760;-122.022;2022-08-07T09:42:02;101930.339;;;16.2;unknown
73422;BME280;61637;47.760;-122.022;2022-08-07T09:44:02;101930.339;;;16.2;unknown
73422;BME280;61637;47.760;-122.022;2022-08-07T09:46:03;101930.339;;;16.1;unknown
73422;BME280;61637;47.760;-122.022;2022-08-07T09:48:05;101930.339;;;16.1;unknown
73422;BME280;61637;47.760;-122.022;2022-08-07T09:50:03;101930.339;;;16.1;unknown
73422;BME280;61637;47.760;-122.022;2022-08-07T09:52:03;101930.339;;;16.1;unknown